Latest Coastal Weather Observations for Cape Borda

IDT60701

Issued at 4:22 am EST Tuesday 20 August 2019 (issued every 10 minutes, with the page automatically refreshed every 10 minutes)

About coastal observations | Map of coastal stations | Coastal observations for TAS | Marine services | Other Formats
Station Details ID: 022823 Name: CAPE BORDA Lat: -35.75 Lon: 136.60 Height: 158.0 m
Data from the previous 72 hours. | See also: Recent months at Cape Borda
Date/Time
EST
Wind Sea
Height
m
Swell Vis
km
Cloud Weather Temp
°C
Press
hPa
Rain since
9am
mm
Dir  Spd
kts
Gust
kts
Height
m
Period
s
Dir
20/04:03am WSW 15 25 - - - - - - - 10.9 1029.7 0.8
20/04:00am WSW 14 20 - - - - - - - 10.8 1029.7 0.8
20/03:30am WSW 17 23 - - - - - - - 10.9 1030.1 0.8
20/03:00am WSW 12 17 - - - - - - - 10.2 1030.3 0.8
20/02:30am W 12 26 - - - - - - - 10.7 1030.4 0.8
20/02:00am WSW 16 25 - - - - - - - 10.5 1030.6 0.8
20/01:30am W 15 25 - - - - - - - 11.0 1030.7 0.4
20/01:22am W 15 25 - - - - - - - 11.6 1030.7 0.4
20/01:00am WSW 16 23 - - - - - - - 11.4 1030.8 0.4
20/12:30am W 15 25 - - - - - - - 10.9 1031.1 0.4
20/12:20am W 15 27 - - - - - - - 11.4 1030.9 0.4
20/12:00am WSW 15 21 - - - - - - - 11.2 1030.9 0.4
 
Date/Time
EST
Wind Sea
Height
m
Swell Vis
km
Cloud Weather Temp
°C
Press
hPa
Rain since
9am
mm
Dir  Spd
kts
Gust
kts
Height
m
Period
s
Dir
19/11:30pm WSW 13 21 - - - - - - - 11.5 1031.1 0.4
19/11:00pm WSW 14 22 - - - - - - - 11.2 1031.2 0.4
19/10:30pm WSW 13 20 - - - - - - - 10.8 1031.2 0.4
19/10:00pm WSW 14 20 - - - - - - - 10.8 1031.2 0.4
19/09:30pm WSW 14 21 - - - - - - - 10.8 1031.1 0.4
19/09:00pm WSW 14 19 - - - - - - - 10.5 1030.9 0.4
19/08:30pm WSW 11 17 - - - - - - - 10.3 1030.7 0.4
19/08:00pm WSW 9 14 - - - - - - - 9.7 1030.6 0.4
19/07:30pm SW 11 15 - - - - - - - 9.9 1030.4 0.4
19/07:00pm WSW 13 18 - - - - - - - 9.7 1030.1 0.2
19/06:30pm SW 12 19 - - - - - - - 9.7 1030.0 0.2
19/06:00pm WSW 12 19 - - - - - - - 10.7 1029.7 0.0
19/05:30pm WSW 13 19 - - - - - - - 11.7 1029.5 0.0
19/05:00pm SW 14 21 - - - - - - - 10.0 1029.4 0.0
19/04:30pm WSW 11 17 - - - - - - - 12.2 1029.0 0.0
19/04:00pm WSW 14 20 - - - - - - - 12.1 1029.0 0.0
19/03:30pm WSW 11 15 1 8.8 7 SW 22 Mostly cloudy Distant precip. 11.6 1029.1 0.0
19/03:00pm WSW 12 16 - - - - - - - 13.3 1028.9 0.0
19/02:30pm SW 13 19 - - - - - - - 12.2 1028.8 0.0
19/02:00pm SSW 14 20 - - - - - - - 12.4 1028.8 0.0
19/01:30pm SW 14 18 - - - - - - - 12.9 1028.8 0.0
19/01:00pm SW 18 24 - - - - - - - 10.9 1028.9 0.0
19/12:30pm SW 13 20 - - - - - - - 11.9 1029.0 0.0
19/12:27pm SW 15 25 - - - - - - - 11.6 1028.8 0.0
19/12:00pm SSW 15 22 - - - - - - - 11.0 1028.8 0.0
19/11:30am SSW 18 26 - - - - - - - 10.8 1028.6 0.0
19/11:21am SSW 15 26 - - - - - - - 11.7 1028.4 0.0
19/11:00am SW 16 24 - - - - - - - 11.1 1028.2 0.0
19/10:30am SW 17 23 - - - - - - - 11.0 1027.8 0.0
19/10:00am SSW 15 21 - - - - - - - 11.7 1027.6 0.0
19/09:30am SSW 17 25 2 7.9 9 SW 10 Partly cloudy Fine 10.2 1027.4 1.2
19/09:13am SSW 17 27 - - - - - - - 10.2 1026.7 1.2
19/09:00am SSW 17 23 - - - - - - - 9.7 1026.5 1.2
19/08:40am SSW 17 27 - - - - - - - 10.0 1026.1 1.2
19/08:30am SSW 16 24 - - - - - - - 9.7 1025.8 1.2
19/08:00am SSW 17 23 - - - - - - - 9.2 1025.4 1.2
19/07:30am SSW 16 24 - - - - - - - 8.4 1025.0 1.2
19/07:08am SW 19 29 - - - - - - - 8.9 1024.5 1.2
19/07:00am SW 19 26 - - - - - - - 8.6 1024.3 1.2
19/06:30am SSW 17 27 - - - - - - - 8.8 1024.2 1.2
19/06:21am SSW 17 27 - - - - - - - 8.8 1024.0 1.2
19/06:00am SW 17 25 - - - - - - - 8.8 1023.8 1.2
19/05:46am SW 17 27 - - - - - - - 9.0 1023.6 1.2
19/05:30am SW 19 27 - - - - - - - 9.0 1023.4 1.2
19/05:00am SW 17 23 - - - - - - - 8.6 1023.2 1.2
19/04:41am SSW 17 27 - - - - - - - 8.1 1023.0 1.2
19/04:30am SSW 17 24 - - - - - - - 7.7 1023.1 1.2
19/04:19am SSW 17 29 - - - - - - - 7.2 1023.0 1.2
19/04:00am SW 16 25 - - - - - - - 7.4 1023.0 1.0
19/03:46am SSW 16 26 - - - - - - - 8.1 1023.0 1.0
19/03:30am SSW 18 27 - - - - - - - 8.1 1023.0 1.0
19/03:00am SW 19 29 - - - - - - - 8.1 1022.7 1.0
19/02:30am SW 21 31 - - - - - - - 7.4 1023.0 1.0
19/02:21am SW 18 28 - - - - - - - 8.6 1022.6 1.0
19/02:00am SW 20 27 - - - - - - - 8.2 1022.5 1.0
19/01:57am SW 21 25 - - - - - - - 8.3 1022.4 1.0
19/01:30am SSW 19 29 - - - - - - - 6.7 1022.2 1.0
19/01:00am SSW 20 34 - - - - - - - 6.2 1022.1 1.0
19/12:43am SSW 17 27 - - - - - - - 7.6 1021.9 0.8
19/12:30am SSW 16 24 - - - - - - - 7.4 1021.9 0.8
19/12:23am SSW 17 27 - - - - - - - 7.7 1021.6 0.8
19/12:00am SW 18 27 - - - - - - - 8.5 1021.4 0.8
 
Date/Time
EST
Wind Sea
Height
m
Swell Vis
km
Cloud Weather Temp
°C
Press
hPa
Rain since
9am
mm
Dir  Spd
kts
Gust
kts
Height
m
Period
s
Dir
18/11:30pm SSW 20 31 - - - - - - - 8.1 1021.1 0.8
18/11:00pm SW 17 27 - - - - - - - 8.7 1020.6 0.8
18/10:59pm SW 17 27 - - - - - - - 8.7 1020.6 0.8
18/10:30pm SW 20 29 - - - - - - - 8.8 1020.3 0.8
18/10:00pm SW 19 26 - - - - - - - 8.5 1019.9 0.8
18/09:30pm SW 19 30 - - - - - - - 8.3 1019.9 0.8
18/09:24pm SW 18 30 - - - - - - - 8.1 1019.6 0.8
18/09:00pm SW 13 18 - - - - - - - 7.7 1019.3 0.8
18/08:30pm SW 22 33 - - - - - - - 7.8 1018.8 0.8
18/08:00pm SSW 17 27 - - - - - - - 7.5 1018.4 0.8
18/07:30pm SW 20 34 - - - - - - - 6.7 1017.5 0.8
18/07:21pm SW 19 34 - - - - - - - 8.4 1017.3 0.2
18/07:00pm SW 19 27 - - - - - - - 8.6 1016.8 0.2
18/06:30pm SW 20 28 - - - - - - - 8.5 1016.2 0.2
18/06:00pm SSW 15 26 - - - - - - - 8.6 1015.3 0.2
18/05:30pm SW 20 35 - - - - - - - 8.5 1014.5 0.2
18/05:19pm SSW 19 29 - - - - - - - 9.1 1014.6 0.2
18/05:00pm SW 21 30 - - - - - - - 9.5 1014.0 0.2
18/04:30pm SW 17 27 - - - - - - - 9.8 1013.4 0.2
18/04:00pm WSW 18 28 - - - - - - - 9.2 1013.2 0.2
18/03:53pm SW 17 28 - - - - - - - 9.7 1012.9 0.2
18/03:30pm SW 17 23 3 6.5 8 SW 15 Mostly cloudy Distant precip. 9.2 1012.9 0.2
18/03:18pm WSW 15 28 - - - - - - - 9.7 1012.6 0.2
18/03:00pm WSW 14 20 - - - - - - - 9.6 1012.5 0.2
18/02:39pm WSW 18 31 - - - - - - - 11.4 1011.9 0.2
18/02:30pm WSW 18 25 - - - - - - - 10.8 1011.9 0.2
18/02:01pm SW 16 26 - - - - - - - 11.1 1011.5 0.2
18/02:00pm SW 17 26 - - - - - - - 11.1 1011.5 0.2
18/01:48pm WSW 21 27 - - - - - - - 11.7 1011.4 0.2
18/01:30pm SW 20 27 - - - - - - - 11.2 1011.3 0.2
18/01:00pm SW 19 29 - - - - - - - 11.3 1010.9 0.2
18/12:41pm SW 19 33 - - - - - - - 11.1 1010.9 0.2
18/12:30pm SW 22 29 - - - - - - - 10.5 1010.9 0.2
18/12:12pm SW 20 30 - - - - - - - 11.3 1010.7 0.2
18/12:00pm SW 21 26 - - - - - - - 11.2 1010.5 0.2
18/11:32am WSW 22 32 - - - - - - - 11.9 1010.3 0.2
18/11:30am WSW 23 32 - - - - - - - 11.7 1010.2 0.2
18/11:00am WSW 21 31 - - - - - - - 11.3 1009.8 0.2
18/10:57am WSW 20 31 - - - - - - - 11.4 1009.7 0.2
18/10:30am SW 19 27 - - - - - - - 9.9 1009.6 0.0
18/10:00am SW 18 30 - - - - - - - 8.9 1009.4 0.0
18/09:44am SW 26 37 - - - - - - - 8.0 1009.2 0.0
18/09:38am SW 31 37 - - - - - - - 8.6 1009.0 0.0
18/09:30am WSW 21 31 3 6.9 8 SW 10 Mostly cloudy Distant precip. 9.3 1009.0 1.2
18/09:00am WSW 19 29 - - - - - - - 8.0 1008.8 1.2
18/08:30am WSW 21 33 - - - - - - - 9.0 1008.2 0.8
18/08:00am W 26 36 - - - - - - - 9.6 1007.9 0.8
18/07:30am W 21 32 - - - - - - - 9.5 1007.3 0.8
18/07:00am WSW 24 37 - - - - - - - 8.9 1007.1 0.8
18/06:30am W 29 43 - - - - - - - 8.9 1007.0 0.8
18/06:00am W 29 41 - - - - - - - 8.7 1006.2 0.8
18/05:57am W 29 41 - - - - - - - 8.8 1006.1 0.8
18/05:53am W 29 37 - - - - - - - 9.3 1006.0 0.8
18/05:30am WNW 23 33 - - - - - - - 10.3 1005.9 0.8
18/05:00am WNW 26 36 - - - - - - - 10.6 1005.9 0.8
18/04:30am WNW 24 37 - - - - - - - 10.8 1006.0 0.8
18/04:04am WNW 19 34 - - - - - - - 11.5 1006.2 0.4
18/04:00am WNW 19 26 - - - - - - - 11.7 1006.2 0.4
18/03:37am WNW 19 29 - - - - - - - 11.7 1006.6 0.4
18/03:30am WNW 21 28 - - - - - - - 11.6 1006.8 0.4
18/03:04am WNW 18 28 - - - - - - - 11.6 1006.9 0.4
18/03:00am WNW 19 28 - - - - - - - 11.6 1006.7 0.4
18/02:43am WNW 20 30 - - - - - - - 11.6 1006.9 0.4
18/02:30am WNW 21 29 - - - - - - - 11.7 1007.0 0.4
18/02:15am W 19 29 - - - - - - - 11.6 1007.0 0.4
18/02:00am WNW 20 27 - - - - - - - 11.9 1007.3 0.4
18/01:30am W 19 29 - - - - - - - 11.9 1007.8 0.4
18/01:00am W 20 30 - - - - - - - 11.9 1007.9 0.4
18/12:50am W 20 30 - - - - - - - 12.3 1007.8 0.4
18/12:30am WNW 23 30 - - - - - - - 12.5 1008.3 0.4
18/12:00am WNW 19 26 - - - - - - - 12.9 1007.9 0.4
 
Date/Time
EST
Wind Sea
Height
m
Swell Vis
km
Cloud Weather Temp
°C
Press
hPa
Rain since
9am
mm
Dir  Spd
kts
Gust
kts
Height
m
Period
s
Dir
17/11:48pm WNW 18 29 - - - - - - - 12.9 1008.1 0.4
17/11:30pm NW 18 25 - - - - - - - 13.0 1008.0 0.4
17/11:00pm NW 22 33 - - - - - - - 12.5 1008.2 0.4
17/10:53pm NW 23 33 - - - - - - - 13.0 1008.3 0.4
17/10:47pm NW 21 26 - - - - - - - 13.0 1008.1 0.4
17/10:30pm NNW 19 29 - - - - - - - 14.4 1007.9 0.0
17/10:21pm NNW 19 29 - - - - - - - 14.2 1008.0 0.0
17/10:00pm N 15 21 - - - - - - - 13.4 1008.4 0.0
17/09:30pm N 14 18 - - - - - - - 13.2 1008.6 0.0
17/09:00pm N 13 19 - - - - - - - 13.3 1008.6 0.0
17/08:30pm N 13 18 - - - - - - - 13.2 1008.7 0.0
17/08:00pm N 13 18 - - - - - - - 13.2 1008.9 0.0
17/07:30pm N 14 22 - - - - - - - 13.3 1009.3 0.0
17/07:00pm N 13 21 - - - - - - - 12.9 1009.6 0.0
17/06:30pm N 11 17 - - - - - - - 12.7 1009.9 0.0
17/06:00pm N 14 20 - - - - - - - 12.5 1009.8 0.0
17/05:30pm N 13 19 - - - - - - - 12.5 1009.8 0.0
17/05:00pm N 14 20 - - - - - - - 12.6 1009.6 0.0
17/04:30pm N 14 20 - - - - - - - 12.6 1009.7 0.0
17/04:00pm NNE 11 16 - - - - - - - 12.4 1009.9 0.0
17/03:30pm N 16 21 2 2.9 7 SW 15 Mostly cloudy Fine 12.6 1010.7 0.0
17/03:00pm N 16 22 - - - - - - - 13.6 1011.1 0.0
17/02:30pm N 16 21 - - - - - - - 13.2 1011.8 0.0
17/02:00pm N 13 20 - - - - - - - 13.8 1012.3 0.0
17/01:30pm NNE 14 22 - - - - - - - 12.6 1012.9 0.0
17/01:00pm NNE 14 21 - - - - - - - 12.6 1013.6 0.0
17/12:30pm NNE 14 20 - - - - - - - 12.5 1014.6 0.0
17/12:00pm NNE 14 21 - - - - - - - 12.2 1015.2 0.0
17/11:30am NNE 15 19 - - - - - - - 12.6 1015.5 0.0
17/11:00am NNE 14 19 - - - - - - - 12.5 1015.8 0.0
17/10:30am NNE 13 19 - - - - - - - 12.1 1016.2 0.0
17/10:00am NNE 13 18 - - - - - - - 11.3 1016.7 0.0
17/09:30am NNE 14 20 <0.5 2.8 8 SW 25 Mostly cloudy Fine 10.6 1017.2 0.0
17/09:00am NNE 13 17 - - - - - - - 10.5 1017.3 0.0
17/08:30am NNE 12 17 - - - - - - - 10.1 1017.4 0.0
17/08:00am NNE 11 17 - - - - - - - 9.9 1017.6 0.0
17/07:30am NNE 12 17 - - - - - - - 9.9 1017.5 0.0
17/07:00am NNE 11 15 - - - - - - - 9.5 1017.4 0.0
17/06:30am NNE 10 14 - - - - - - - 9.3 1017.8 0.0
17/06:00am NNE 10 15 - - - - - - - 9.6 1017.9 0.0
17/05:30am NNE 9 14 - - - - - - - 9.6 1018.0 0.0
17/05:00am NNE 9 13 - - - - - - - 9.7 1018.1 0.0

Other formats

Comma delimited format used in spreadsheet applications
http://www.bom.gov.au/fwo/IDT60701/IDT60701.95805.axf

JavaScript Object Notation format (JSON) in row-major order
http://www.bom.gov.au/fwo/IDT60701/IDT60701.95805.json

Data quality

Most of these data are generated automatically and are frequently updated. Quality checks on data are not normally performed. It is possible for incorrect values to appear. Refer to information at About Latest Weather Observations and please check the disclaimer before using these data.